Terminal Aerodrome Forecast
Issued by NWS

Home | Current Version | Previous Version | Text Only | Print | Product List | Glossary On
Versions: 1 2 3 4 5 6 7 8 9 10 11 12 13 14
260
FTUS45 KABQ 262339
TAFGUP
TAF
KGUP 262339Z 2700/2724 26018G28KT P6SM BKN200
     FM270200 25011KT P6SM SCT060 BKN100
     FM270700 23013G23KT P6SM SCT035 OVC060
     FM271600 25020G30KT P6SM BKN100
     FM272000 27027G37KT P6SM SCT100=

USA.gov is the U.S. government's official web portal to all federal, state and local government web resources and services.